Wetterdaten: Woche 28.03.11 - 03.04.11 (KW13)
Datum Zeit Temperatur Luftfeuchte Luftdruck Niederschlag Windrichtung Sonnenschein Solar Wind
28.03.2011 00:00 4,3 C 97 % 1010,7 hPa 0,0 l/m N 0,00 h 0 W/m 1,9 km/h (1 Bft)
28.03.2011 01:00 4,1 C 98 % 1010,7 hPa 0,0 l/m O-NO 0,00 h 0 W/m 2,4 km/h (1 Bft)
28.03.2011 02:00 3,3 C 98 % 1010,7 hPa 0,0 l/m N 0,00 h 0 W/m 2,9 km/h (1 Bft)
28.03.2011 03:00 2,8 C 98 % 1010,7 hPa 0,0 l/m N-NW 0,00 h 0 W/m 6,6 km/h (2 Bft)
28.03.2011 04:00 2,6 C 99 % 1010,5 hPa 0,0 l/m N 0,00 h 0 W/m 3,7 km/h (1 Bft)
28.03.2011 05:00 2,4 C 99 % 1010,6 hPa 0,0 l/m N-NW 0,00 h 0 W/m 1,7 km/h (1 Bft)
28.03.2011 06:00 2,6 C 99 % 1010,9 hPa 0,0 l/m N 0,00 h 0 W/m 1,5 km/h (1 Bft)
28.03.2011 07:00 2,7 C 99 % 1011,2 hPa 0,0 l/m N-NW 0,00 h 9 W/m 2,1 km/h (1 Bft)
28.03.2011 08:00 2,8 C 99 % 1011,9 hPa 0,0 l/m N-NW 0,00 h 29 W/m 2,5 km/h (1 Bft)
28.03.2011 09:00 3,4 C 99 % 1012,3 hPa 0,0 l/m N-NW 0,00 h 64 W/m 3,7 km/h (1 Bft)
28.03.2011 10:00 4,6 C 99 % 1012,6 hPa 0,0 l/m N-NW 0,08 h 242 W/m 4,4 km/h (1 Bft)
28.03.2011 11:00 7,4 C 94 % 1012,8 hPa 0,0 l/m O-NO 1,00 h 660 W/m 5,1 km/h (1 Bft)
28.03.2011 12:00 10,4 C 76 % 1012,7 hPa 0,0 l/m O-NO 1,00 h 778 W/m 5,9 km/h (2 Bft)
28.03.2011 13:00 12,2 C 64 % 1012,4 hPa 0,0 l/m SO 1,00 h 792 W/m 6,5 km/h (2 Bft)
28.03.2011 14:00 13,5 C 53 % 1012,1 hPa 0,0 l/m SW 1,00 h 742 W/m 7,6 km/h (2 Bft)
28.03.2011 15:00 13,4 C 50 % 1011,8 hPa 0,0 l/m S 0,25 h 260 W/m 6,1 km/h (2 Bft)
28.03.2011 16:00 12,9 C 52 % 1011,8 hPa 0,0 l/m SW 0,00 h 105 W/m 4,9 km/h (1 Bft)
28.03.2011 17:00 12,5 C 55 % 1011,9 hPa 0,0 l/m W-NW 0,00 h 74 W/m 4,4 km/h (1 Bft)
28.03.2011 18:00 11,7 C 72 % 1012,2 hPa 0,0 l/m W 0,00 h 41 W/m 7,8 km/h (2 Bft)
28.03.2011 19:00 10,5 C 74 % 1012,8 hPa 0,0 l/m W-NW 0,08 h 17 W/m 8,0 km/h (2 Bft)
28.03.2011 20:00 8,7 C 79 % 1013,4 hPa 0,0 l/m W-NW 0,00 h 0 W/m 3,1 km/h (1 Bft)
28.03.2011 21:00 7,5 C 82 % 1014,0 hPa 0,0 l/m W-NW 0,00 h 0 W/m 4,7 km/h (1 Bft)
28.03.2011 22:00 7,4 C 85 % 1014,4 hPa 0,0 l/m N 0,00 h 0 W/m 3,3 km/h (1 Bft)
28.03.2011 23:00 7,0 C 88 % 1014,6 hPa 0,0 l/m S-SW 0,00 h 0 W/m 4,8 km/h (1 Bft)
29.03.2011 00:00 5,7 C 92 % 1014,7 hPa 0,0 l/m N 0,00 h 0 W/m 0,1 km/h (0 Bft)
29.03.2011 01:00 5,3 C 93 % 1014,7 hPa 0,0 l/m N 0,00 h 0 W/m 0,1 km/h (0 Bft)
29.03.2011 02:00 4,8 C 95 % 1014,8 hPa 0,0 l/m N-NW 0,00 h 0 W/m 1,7 km/h (1 Bft)
29.03.2011 03:00 4,5 C 95 % 1014,6 hPa 0,0 l/m N 0,00 h 0 W/m 0,3 km/h (0 Bft)
29.03.2011 04:00 3,5 C 96 % 1014,5 hPa 0,0 l/m N 0,00 h 0 W/m 0,7 km/h (0 Bft)
29.03.2011 05:00 2,8 C 97 % 1014,5 hPa 0,0 l/m N 0,00 h 0 W/m 0,0 km/h (0 Bft)
29.03.2011 06:00 2,0 C 97 % 1014,8 hPa 0,0 l/m N 0,00 h 0 W/m 0,1 km/h (0 Bft)
29.03.2011 07:00 1,7 C 97 % 1015,1 hPa 0,0 l/m N 0,08 h 27 W/m 0,0 km/h (0 Bft)
29.03.2011 08:00 2,6 C 97 % 1015,5 hPa 0,0 l/m N 0,50 h 138 W/m 0,0 km/h (0 Bft)
29.03.2011 09:00 5,9 C 92 % 1015,5 hPa 0,0 l/m SW 1,00 h 361 W/m 1,3 km/h (1 Bft)
29.03.2011 10:00 9,0 C 85 % 1015,4 hPa 0,0 l/m SW 1,00 h 548 W/m 4,9 km/h (1 Bft)
29.03.2011 11:00 11,5 C 71 % 1015,3 hPa 0,0 l/m SO 1,00 h 689 W/m 6,8 km/h (2 Bft)
29.03.2011 12:00 13,0 C 64 % 1015,0 hPa 0,0 l/m O-SO 0,75 h 606 W/m 7,5 km/h (2 Bft)
29.03.2011 13:00 14,1 C 55 % 1014,6 hPa 0,0 l/m NO 0,75 h 668 W/m 5,9 km/h (2 Bft)
29.03.2011 14:00 15,2 C 49 % 1014,1 hPa 0,0 l/m O-SO 0,75 h 637 W/m 9,4 km/h (2 Bft)
29.03.2011 15:00 14,6 C 49 % 1013,4 hPa 0,0 l/m SW 0,58 h 435 W/m 6,5 km/h (2 Bft)
29.03.2011 16:00 15,1 C 46 % 1012,9 hPa 0,0 l/m SW 0,67 h 363 W/m 5,3 km/h (1 Bft)
29.03.2011 17:00 15,5 C 44 % 1012,5 hPa 0,0 l/m NO 1,00 h 333 W/m 6,3 km/h (2 Bft)
29.03.2011 18:00 15,2 C 44 % 1012,3 hPa 0,0 l/m NO 0,75 h 138 W/m 4,7 km/h (1 Bft)
29.03.2011 19:00 12,8 C 56 % 1012,5 hPa 0,0 l/m N 0,08 h 18 W/m 2,4 km/h (1 Bft)
29.03.2011 20:00 9,9 C 69 % 1012,9 hPa 0,0 l/m N 0,00 h 0 W/m 1,2 km/h (1 Bft)
29.03.2011 21:00 8,2 C 77 % 1013,4 hPa 0,0 l/m N 0,00 h 0 W/m 0,8 km/h (0 Bft)
29.03.2011 22:00 7,0 C 82 % 1013,4 hPa 0,0 l/m N 0,00 h 0 W/m 0,5 km/h (0 Bft)
29.03.2011 23:00 6,1 C 85 % 1013,5 hPa 0,0 l/m N 0,00 h 0 W/m 0,3 km/h (0 Bft)
30.03.2011 00:00 5,0 C 88 % 1013,5 hPa 0,0 l/m N 0,00 h 0 W/m 0,3 km/h (0 Bft)
30.03.2011 01:00 3,9 C 90 % 1013,7 hPa 0,0 l/m N 0,00 h 0 W/m 0,0 km/h (0 Bft)
30.03.2011 02:00 3,3 C 92 % 1013,5 hPa 0,0 l/m N 0,00 h 0 W/m 0,0 km/h (0 Bft)
30.03.2011 03:00 2,3 C 94 % 1013,5 hPa 0,0 l/m N 0,00 h 0 W/m 0,0 km/h (0 Bft)
30.03.2011 04:00 2,1 C 95 % 1013,4 hPa 0,0 l/m N 0,00 h 0 W/m 0,0 km/h (0 Bft)
30.03.2011 05:00 1,3 C 95 % 1013,8 hPa 0,0 l/m N 0,00 h 0 W/m 0,0 km/h (0 Bft)
30.03.2011 06:00 1,1 C 95 % 1014,3 hPa 0,0 l/m N 0,00 h 0 W/m 0,1 km/h (0 Bft)
30.03.2011 07:00 0,8 C 95 % 1015,1 hPa 0,0 l/m N 0,50 h 42 W/m 0,0 km/h (0 Bft)
30.03.2011 08:00 2,0 C 95 % 1015,9 hPa 0,0 l/m NO 0,58 h 162 W/m 1,7 km/h (1 Bft)
30.03.2011 09:00 6,2 C 89 % 1016,2 hPa 0,0 l/m S 0,42 h 227 W/m 7,5 km/h (2 Bft)
30.03.2011 10:00 8,2 C 84 % 1016,6 hPa 0,0 l/m S 0,33 h 355 W/m 11,7 km/h (2 Bft)
30.03.2011 11:00 10,5 C 79 % 1016,8 hPa 0,0 l/m SW 0,33 h 309 W/m 12,0 km/h (2 Bft)
30.03.2011 12:00 12,4 C 71 % 1016,7 hPa 0,0 l/m SW 0,50 h 487 W/m 18,0 km/h (3 Bft)
30.03.2011 13:00 13,0 C 67 % 1016,5 hPa 0,0 l/m W-SW 0,17 h 249 W/m 20,1 km/h (4 Bft)
30.03.2011 14:00 13,4 C 65 % 1016,4 hPa 0,0 l/m W 0,50 h 488 W/m 19,6 km/h (3 Bft)
30.03.2011 15:00 13,7 C 65 % 1016,1 hPa 0,0 l/m SW 0,92 h 594 W/m 21,0 km/h (4 Bft)
30.03.2011 16:00 13,4 C 63 % 1015,9 hPa 0,0 l/m W 0,75 h 430 W/m 18,5 km/h (3 Bft)
30.03.2011 17:00 13,3 C 64 % 1016,0 hPa 0,0 l/m W-SW 0,42 h 217 W/m 18,4 km/h (3 Bft)
30.03.2011 18:00 12,6 C 67 % 1016,5 hPa 0,0 l/m W-NW 0,67 h 116 W/m 11,5 km/h (2 Bft)
30.03.2011 19:00 11,6 C 64 % 1017,1 hPa 0,0 l/m W-SW 0,00 h 15 W/m 13,4 km/h (3 Bft)
30.03.2011 20:00 9,9 C 70 % 1017,7 hPa 0,0 l/m W-SW 0,00 h 0 W/m 7,6 km/h (2 Bft)
30.03.2011 21:00 8,7 C 77 % 1018,2 hPa 0,0 l/m SW 0,00 h 0 W/m 5,7 km/h (1 Bft)
30.03.2011 22:00 9,4 C 76 % 1018,5 hPa 0,0 l/m W-SW 0,00 h 0 W/m 9,1 km/h (2 Bft)
30.03.2011 23:00 8,8 C 79 % 1018,6 hPa 0,0 l/m SW 0,00 h 0 W/m 5,1 km/h (1 Bft)
31.03.2011 00:00 7,8 C 82 % 1018,7 hPa 0,0 l/m SW 0,00 h 0 W/m 3,9 km/h (1 Bft)
31.03.2011 01:00 6,2 C 88 % 1018,9 hPa 0,0 l/m N 0,00 h 0 W/m 0,5 km/h (0 Bft)
31.03.2011 02:00 5,0 C 91 % 1019,1 hPa 0,0 l/m N 0,00 h 0 W/m 0,5 km/h (0 Bft)
31.03.2011 03:00 4,5 C 93 % 1019,2 hPa 0,0 l/m N 0,00 h 0 W/m 1,7 km/h (1 Bft)
31.03.2011 04:00 4,9 C 94 % 1019,3 hPa 0,0 l/m SW 0,00 h 0 W/m 3,6 km/h (1 Bft)
31.03.2011 05:00 6,7 C 91 % 1019,4 hPa 0,0 l/m SW 0,00 h 0 W/m 8,8 km/h (2 Bft)
31.03.2011 06:00 6,6 C 92 % 1019,2 hPa 0,0 l/m SW 0,00 h 0 W/m 9,7 km/h (2 Bft)
31.03.2011 07:00 6,5 C 94 % 1019,7 hPa 0,0 l/m SW 0,00 h 10 W/m 9,7 km/h (2 Bft)
31.03.2011 08:00 6,9 C 94 % 1020,0 hPa 0,0 l/m S-SW 0,00 h 51 W/m 11,0 km/h (2 Bft)
31.03.2011 09:00 8,7 C 89 % 1020,2 hPa 0,0 l/m SW 0,75 h 286 W/m 12,6 km/h (3 Bft)
31.03.2011 10:00 11,1 C 77 % 1020,1 hPa 0,0 l/m W 0,83 h 462 W/m 19,4 km/h (3 Bft)
31.03.2011 11:00 12,1 C 69 % 1019,8 hPa 0,0 l/m W-SW 1,00 h 474 W/m 26,1 km/h (4 Bft)
31.03.2011 12:00 13,3 C 65 % 1019,7 hPa 0,0 l/m W-SW 0,42 h 379 W/m 22,9 km/h (4 Bft)
31.03.2011 13:00 14,1 C 63 % 1019,4 hPa 0,0 l/m W-SW 0,42 h 407 W/m 22,8 km/h (4 Bft)
31.03.2011 14:00 15,1 C 60 % 1019,1 hPa 0,0 l/m W-SW 0,42 h 383 W/m 22,0 km/h (4 Bft)
31.03.2011 15:00 14,4 C 63 % 1019,3 hPa 0,0 l/m W 0,00 h 90 W/m 24,5 km/h (4 Bft)
31.03.2011 16:00 11,5 C 84 % 1020,0 hPa 1,0 l/m W 0,00 h 58 W/m 20,5 km/h (4 Bft)
31.03.2011 17:00 10,2 C 92 % 1020,2 hPa 1,4 l/m SW 0,00 h 34 W/m 23,7 km/h (4 Bft)
31.03.2011 18:00 9,7 C 94 % 1020,6 hPa 2,0 l/m SW 0,00 h 16 W/m 23,6 km/h (4 Bft)
31.03.2011 19:00 9,9 C 95 % 1020,9 hPa 0,2 l/m SW 0,00 h 8 W/m 29,0 km/h (5 Bft)
31.03.2011 20:00 10,2 C 94 % 1021,6 hPa 0,0 l/m W-SW 0,00 h 0 W/m 25,1 km/h (4 Bft)
31.03.2011 21:00 10,3 C 94 % 1022,7 hPa 0,0 l/m W-SW 0,00 h 0 W/m 19,0 km/h (3 Bft)
31.03.2011 22:00 10,5 C 94 % 1023,0 hPa 0,0 l/m SW 0,00 h 0 W/m 13,4 km/h (3 Bft)
31.03.2011 23:00 10,6 C 93 % 1023,0 hPa 0,0 l/m W-SW 0,00 h 0 W/m 20,1 km/h (4 Bft)
01.04.2011 00:00 10,1 C 94 % 1023,2 hPa 0,0 l/m SW 0,00 h 0 W/m 12,9 km/h (3 Bft)
01.04.2011 01:00 9,9 C 96 % 1023,6 hPa 0,0 l/m W-SW 0,00 h 0 W/m 16,1 km/h (3 Bft)
01.04.2011 02:00 10,4 C 94 % 1023,6 hPa 0,2 l/m W-SW 0,00 h 0 W/m 17,0 km/h (3 Bft)
01.04.2011 03:00 10,3 C 95 % 1023,5 hPa 0,2 l/m SW 0,00 h 0 W/m 17,4 km/h (3 Bft)
01.04.2011 04:00 10,3 C 94 % 1023,6 hPa 0,0 l/m W 0,00 h 0 W/m 17,0 km/h (3 Bft)
01.04.2011 05:00 10,2 C 93 % 1023,5 hPa 0,2 l/m W 0,00 h 0 W/m 20,0 km/h (4 Bft)
01.04.2011 06:00 9,8 C 94 % 1023,9 hPa 0,0 l/m SW 0,00 h 0 W/m 17,8 km/h (3 Bft)
01.04.2011 07:00 9,7 C 94 % 1024,3 hPa 0,0 l/m W-SW 0,00 h 12 W/m 15,7 km/h (3 Bft)
01.04.2011 08:00 10,1 C 94 % 1025,0 hPa 0,0 l/m SW 0,17 h 81 W/m 10,9 km/h (2 Bft)
01.04.2011 09:00 11,1 C 91 % 1025,1 hPa 0,0 l/m SW 0,17 h 176 W/m 12,0 km/h (2 Bft)
01.04.2011 10:00 12,6 C 85 % 1025,1 hPa 0,0 l/m W 0,67 h 498 W/m 15,2 km/h (3 Bft)
01.04.2011 11:00 13,9 C 79 % 1025,0 hPa 0,0 l/m W-SW 0,58 h 477 W/m 16,4 km/h (3 Bft)
01.04.2011 12:00 14,8 C 75 % 1024,7 hPa 0,0 l/m W-SW 0,50 h 557 W/m 18,2 km/h (3 Bft)
01.04.2011 13:00 16,0 C 68 % 1024,0 hPa 0,0 l/m SW 0,83 h 714 W/m 17,0 km/h (3 Bft)
01.04.2011 14:00 17,1 C 63 % 1023,1 hPa 0,0 l/m SW 1,00 h 751 W/m 16,4 km/h (3 Bft)
01.04.2011 15:00 17,6 C 61 % 1022,5 hPa 0,0 l/m W-SW 1,00 h 623 W/m 13,4 km/h (3 Bft)
01.04.2011 16:00 18,2 C 56 % 1021,9 hPa 0,0 l/m SW 1,00 h 509 W/m 9,5 km/h (2 Bft)
01.04.2011 17:00 18,4 C 53 % 1021,5 hPa 0,0 l/m SW 1,00 h 359 W/m 8,0 km/h (2 Bft)
01.04.2011 18:00 18,1 C 51 % 1021,5 hPa 0,0 l/m O-SO 0,58 h 141 W/m 5,1 km/h (1 Bft)
01.04.2011 19:00 15,6 C 63 % 1021,5 hPa 0,0 l/m O-SO 0,00 h 18 W/m 1,3 km/h (1 Bft)
01.04.2011 20:00 12,6 C 76 % 1021,8 hPa 0,0 l/m N 0,00 h 0 W/m 1,2 km/h (1 Bft)
01.04.2011 21:00 11,1 C 83 % 1022,0 hPa 0,0 l/m N 0,00 h 0 W/m 0,5 km/h (0 Bft)
01.04.2011 22:00 10,1 C 87 % 1021,9 hPa 0,0 l/m O-SO 0,00 h 0 W/m 2,3 km/h (1 Bft)
01.04.2011 23:00 9,4 C 90 % 1021,8 hPa 0,0 l/m N-NW 0,00 h 0 W/m 3,6 km/h (1 Bft)
02.04.2011 00:00 9,0 C 92 % 1021,4 hPa 0,0 l/m N-NW 0,00 h 0 W/m 3,3 km/h (1 Bft)
02.04.2011 01:00 8,8 C 93 % 1021,1 hPa 0,0 l/m N-NW 0,00 h 0 W/m 4,3 km/h (1 Bft)
02.04.2011 02:00 8,2 C 94 % 1020,6 hPa 0,0 l/m N 0,00 h 0 W/m 2,1 km/h (1 Bft)
02.04.2011 03:00 7,2 C 96 % 1020,1 hPa 0,0 l/m N 0,00 h 0 W/m 0,9 km/h (0 Bft)
02.04.2011 04:00 6,6 C 96 % 1019,6 hPa 0,0 l/m N 0,00 h 0 W/m 1,9 km/h (1 Bft)
02.04.2011 05:00 6,3 C 97 % 1019,4 hPa 0,0 l/m N 0,00 h 0 W/m 1,1 km/h (0 Bft)
02.04.2011 06:00 5,7 C 97 % 1019,0 hPa 0,0 l/m N-NW 0,00 h 0 W/m 1,7 km/h (1 Bft)
02.04.2011 07:00 5,8 C 98 % 1018,8 hPa 0,0 l/m N-NW 0,33 h 47 W/m 1,7 km/h (1 Bft)
02.04.2011 08:00 7,2 C 98 % 1018,9 hPa 0,0 l/m N-NW 1,00 h 243 W/m 4,9 km/h (1 Bft)
02.04.2011 09:00 9,1 C 92 % 1018,8 hPa 0,0 l/m N-NW 1,00 h 458 W/m 6,3 km/h (2 Bft)
02.04.2011 10:00 12,4 C 80 % 1018,5 hPa 0,0 l/m N-NW 1,00 h 631 W/m 4,5 km/h (1 Bft)
02.04.2011 11:00 15,6 C 69 % 1018,1 hPa 0,0 l/m N 1,00 h 757 W/m 5,1 km/h (1 Bft)
02.04.2011 12:00 18,0 C 56 % 1017,5 hPa 0,0 l/m SO 1,00 h 834 W/m 7,1 km/h (2 Bft)
02.04.2011 13:00 20,1 C 48 % 1016,7 hPa 0,0 l/m O-SO 1,00 h 842 W/m 7,2 km/h (2 Bft)
02.04.2011 14:00 21,1 C 46 % 1015,9 hPa 0,0 l/m S-SO 1,00 h 776 W/m 6,4 km/h (2 Bft)
02.04.2011 15:00 21,8 C 43 % 1015,1 hPa 0,0 l/m SW 1,00 h 669 W/m 7,9 km/h (2 Bft)
02.04.2011 16:00 22,5 C 39 % 1014,5 hPa 0,0 l/m SO 1,00 h 534 W/m 9,5 km/h (2 Bft)
02.04.2011 17:00 22,3 C 34 % 1013,9 hPa 0,0 l/m SW 1,00 h 372 W/m 7,8 km/h (2 Bft)
02.04.2011 18:00 21,6 C 35 % 1013,6 hPa 0,0 l/m SW 0,92 h 170 W/m 6,7 km/h (2 Bft)
02.04.2011 19:00 18,1 C 48 % 1013,5 hPa 0,0 l/m N 0,00 h 17 W/m 0,7 km/h (0 Bft)
02.04.2011 20:00 14,4 C 61 % 1013,6 hPa 0,0 l/m N 0,00 h 0 W/m 0,0 km/h (0 Bft)
02.04.2011 21:00 12,6 C 68 % 1013,9 hPa 0,0 l/m N 0,00 h 0 W/m 0,0 km/h (0 Bft)
02.04.2011 22:00 11,2 C 75 % 1013,9 hPa 0,0 l/m N 0,00 h 0 W/m 0,1 km/h (0 Bft)
02.04.2011 23:00 9,9 C 81 % 1013,8 hPa 0,0 l/m N 0,00 h 0 W/m 0,0 km/h (0 Bft)
03.04.2011 00:00 8,8 C 86 % 1013,7 hPa 0,0 l/m N 0,00 h 0 W/m 0,0 km/h (0 Bft)
03.04.2011 01:00 7,9 C 89 % 1013,5 hPa 0,0 l/m N 0,00 h 0 W/m 0,0 km/h (0 Bft)
03.04.2011 02:00 7,4 C 91 % 1013,3 hPa 0,0 l/m N 0,00 h 0 W/m 0,0 km/h (0 Bft)
03.04.2011 03:00 6,7 C 92 % 1013,1 hPa 0,0 l/m N 0,00 h 0 W/m 0,0 km/h (0 Bft)
03.04.2011 04:00 6,3 C 93 % 1012,9 hPa 0,0 l/m N 0,00 h 0 W/m 0,0 km/h (0 Bft)
03.04.2011 05:00 6,1 C 94 % 1012,6 hPa 0,0 l/m N 0,00 h 0 W/m 0,0 km/h (0 Bft)
03.04.2011 06:00 5,2 C 94 % 1012,4 hPa 0,0 l/m N 0,00 h 5 W/m 0,0 km/h (0 Bft)
03.04.2011 07:00 5,5 C 94 % 1012,6 hPa 0,0 l/m N 0,50 h 59 W/m 0,0 km/h (0 Bft)
03.04.2011 08:00 7,9 C 90 % 1012,9 hPa 0,0 l/m N 1,00 h 258 W/m 0,0 km/h (0 Bft)
03.04.2011 09:00 11,7 C 79 % 1012,8 hPa 0,0 l/m N 1,00 h 373 W/m 1,7 km/h (1 Bft)
03.04.2011 10:00 15,2 C 64 % 1012,6 hPa 0,0 l/m SW 1,00 h 575 W/m 3,1 km/h (1 Bft)
03.04.2011 11:00 18,2 C 57 % 1012,3 hPa 0,0 l/m S-SO 1,00 h 728 W/m 7,5 km/h (2 Bft)
03.04.2011 12:00 20,3 C 53 % 1011,6 hPa 0,0 l/m S-SW 1,00 h 803 W/m 11,2 km/h (2 Bft)
03.04.2011 13:00 21,7 C 45 % 1010,9 hPa 0,0 l/m S-SW 1,00 h 811 W/m 13,7 km/h (3 Bft)
03.04.2011 14:00 22,2 C 43 % 1010,4 hPa 0,0 l/m SW 0,92 h 693 W/m 14,2 km/h (3 Bft)
03.04.2011 15:00 22,5 C 40 % 1010,1 hPa 0,0 l/m W-SW 1,00 h 551 W/m 9,4 km/h (2 Bft)
03.04.2011 16:00 22,8 C 37 % 1009,7 hPa 0,0 l/m S-SW 1,00 h 469 W/m 10,7 km/h (2 Bft)
03.04.2011 17:00 22,1 C 38 % 1009,4 hPa 0,0 l/m W-SW 0,83 h 279 W/m 11,2 km/h (2 Bft)
03.04.2011 18:00 21,3 C 42 % 1009,6 hPa 0,0 l/m W-SW 0,58 h 163 W/m 8,7 km/h (2 Bft)
03.04.2011 19:00 19,3 C 47 % 1009,7 hPa 0,0 l/m W-SW 0,00 h 25 W/m 4,0 km/h (1 Bft)
03.04.2011 20:00 16,9 C 56 % 1010,0 hPa 0,0 l/m N 0,00 h 0 W/m 0,8 km/h (0 Bft)
03.04.2011 21:00 15,0 C 65 % 1010,5 hPa 0,0 l/m N 0,00 h 0 W/m 2,0 km/h (1 Bft)
03.04.2011 22:00 16,4 C 62 % 1011,3 hPa 0,0 l/m W-NW 0,00 h 0 W/m 14,6 km/h (3 Bft)
03.04.2011 23:00 15,3 C 72 % 1011,8 hPa 0,8 l/m SW 0,00 h 0 W/m 8,4 km/h (2 Bft)
Min-Datum _ 30.03.11 02.04.11 03.04.11 - - - - 28.03.11
_ Min-Zeit 06:55 17:30 17:30 - - - - 00:15
Minimum _ 0,4 C 29 % 1009,3 hPa - - - - 0,0 km/h (0 Bft)
Max-Datum _ 03.04.11 28.03.11 01.04.11 31.03.11 - 28.03.11 01.04.11 31.03.11
_ Max-Zeit 16:50 03:50 09:55 18:15 - 10:55 13:10 19:55
Maximum _ 23,0 C 99 % 1025,3 hPa 2,0 l/m - 0,08 h 911 W/m 35,4 km/h
W-SW (5 Bft)
Durchschnitt _ 10,5 C 78 % 1016,3 hPa #6,0 l/m SW #52:50 h 350 W/m 7,4 km/h (2 Bft)